Terminal Aerodrome Forecast
Issued by NWS

Home | Current Version | Previous Version | Text Only | Print | Product List | Glossary On
Versions: 1 2 3 4 5 6 7 8 9 10 11 12 13 14 15 16 17 18 19 20 21 22 23 24
000
FTPA31 PHFO 021400 AAA
TAFKOA
TAF AMD
PHKO 021433Z 0215/0312 09005KT P6SM FEW050 BKN250
     FM022000 23008KT P6SM FEW025 BKN060 BKN250
     FM030500 17009KT P6SM FEW025 FEW050
     FM030800 10005KT P6SM FEW050=

USA.gov is the U.S. government's official web portal to all federal, state and local government web resources and services.